^^
Meteo Knjazevac Station Historical Data
Daily Summary for June 15, 2021 Units:  English    Metric   Both
Daily Weekly Monthly Yearly Custom
  High: Low: Average:
Temperature: 37.9 °F 31.1 °F 34.3 °F
Dew Point: 35 °F 29.5 °F 32.2 °F
Humidity: 94% 88% 92%
Wind Speed: 5mph 0mph 2.1mph
Wind Gust: 9mph - -
Wind- - SSW
Pressure: 30.32 in 30.24 in -
Precipitation: 0.00 in    
Historical Graphs
 
 
Tabular Data for June 15, 2021
Time Temperature Dew Point Pressure Wind Wind Speed Wind Gust Humidity Rainfall Rate (Hourly) solar Conditions
00:00 34.2 °F 32.3 °F 30.24 in WSW 3 mph 6 mph 93% 0.00 in 0 W/m2
00:10 34.2 °F 32.6 °F 30.24 in SW 2 mph 5 mph 94% 0.00 in 0 W/m2
00:20 34.2 °F 32.6 °F 30.24 in SW 2 mph 5 mph 94% 0.00 in 0 W/m2
00:30 34 °F 32.2 °F 30.24 in SW 2 mph 6 mph 93% 0.00 in 0 W/m2
00:40 34 °F 32.2 °F 30.24 in Calm   4 mph 93% 0.00 in 0 W/m2
00:50 34 °F 32.2 °F 30.24 in WSW 2 mph 5 mph 93% 0.00 in 0 W/m2
01:00 33.8 °F 32 °F 30.24 in SW 3 mph 6 mph 93% 0.00 in 0 W/m2
01:10 33.8 °F 31.5 °F 30.24 in SW 5 mph 6 mph 91% 0.00 in 0 W/m2
01:20 33.7 °F 31.3 °F 30.24 in SW 3 mph 6 mph 91% 0.00 in 0 W/m2
01:30 33.6 °F 31.3 °F 30.24 in SW 3 mph 7 mph 91% 0.00 in 0 W/m2
01:40 33.6 °F 31.3 °F 30.24 in SW 3 mph 6 mph 91% 0.00 in 0 W/m2
01:50 33.3 °F 30.9 °F 30.24 in WSW 5 mph 7 mph 91% 0.00 in 0 W/m2
02:00 32.9 °F 30.6 °F 30.24 in WSW 3 mph 6 mph 91% 0.00 in 0 W/m2
02:10 32.7 °F 30.4 °F 30.24 in WSW 2 mph 5 mph 91% 0.00 in 0 W/m2
02:20 32.4 °F 30 °F 30.24 in WSW 1 mph 5 mph 91% 0.00 in 0 W/m2
02:30 32.4 °F 30 °F 30.24 in WSW 2 mph 7 mph 91% 0.00 in 0 W/m2
02:40 32 °F 29.7 °F 30.24 in WSW 2 mph 4 mph 91% 0.00 in 0 W/m2
02:50 31.8 °F 30 °F 30.24 in WSW 2 mph 3 mph 93% 0.00 in 0 W/m2
03:00 31.6 °F 29.8 °F 30.24 in West 2 mph 5 mph 93% 0.00 in 0 W/m2
03:10 31.5 °F 29.7 °F 30.24 in WSW 2 mph 5 mph 93% 0.00 in 0 W/m2
03:20 31.3 °F 29.5 °F 30.24 in SW 3 mph 6 mph 93% 0.00 in 0 W/m2
03:30 31.3 °F 29.5 °F 30.24 in SW 3 mph 7 mph 93% 0.00 in 0 W/m2
03:40 31.1 °F 29.6 °F 30.24 in WSW 2 mph 7 mph 94% 0.00 in 0 W/m2
03:50 31.1 °F 29.6 °F 30.24 in SSW 2 mph 4 mph 94% 0.00 in 0 W/m2
04:00 31.3 °F 29.8 °F 30.25 in NW 2 mph 4 mph 94% 0.00 in 0 W/m2
04:10 31.3 °F 29.8 °F 30.24 in SW 3 mph 6 mph 94% 0.00 in 0 W/m2
04:20 31.5 °F 29.9 °F 30.24 in WSW 3 mph 7 mph 94% 0.00 in 0 W/m2
04:30 31.6 °F 30.1 °F 30.24 in WSW 3 mph 5 mph 94% 0.00 in 0 W/m2
04:40 31.6 °F 30.1 °F 30.24 in WSW 2 mph 5 mph 94% 0.00 in 0 W/m2
04:50 31.6 °F 30.1 °F 30.24 in SW 1 mph 3 mph 94% 0.00 in 0 W/m2
05:00 31.8 °F 30.3 °F 30.25 in Calm   2 mph 94% 0.00 in 0 W/m2
05:10 31.8 °F 30.3 °F 30.25 in West 1 mph 2 mph 94% 0.00 in 0 W/m2
05:20 32 °F 30.5 °F 30.25 in WSW 1 mph 3 mph 94% 0.00 in 0 W/m2
05:30 32 °F 30.5 °F 30.25 in South 1 mph 3 mph 94% 0.00 in 0 W/m2
05:40 32.2 °F 30.6 °F 30.25 in WSW 3 mph 6 mph 94% 0.00 in 0 W/m2
05:50 32.2 °F 30.6 °F 30.25 in WSW 3 mph 6 mph 94% 0.00 in 0 W/m2
06:00 32.4 °F 30.8 °F 30.25 in WSW 2 mph 5 mph 94% 0.00 in 0 W/m2
06:10 32.4 °F 30.8 °F 30.25 in WSW 2 mph 3 mph 94% 0.00 in 0 W/m2
06:20 32.4 °F 30.9 °F 30.25 in SW 1 mph 5 mph 94% 0.00 in 0 W/m2
06:30 32.5 °F 31 °F 30.25 in WSW 1 mph 3 mph 94% 0.00 in 0 W/m2
06:40 32.5 °F 31 °F 30.25 in Calm   3 mph 94% 0.00 in 0 W/m2
06:50 32.7 °F 31.2 °F 30.25 in Calm   2 mph 94% 0.00 in 0 W/m2
07:00 32.7 °F 31.2 °F 30.26 in SW 2 mph 4 mph 94% 0.00 in 1 W/m2
07:10 32.9 °F 31.3 °F 30.26 in WSW 1 mph 3 mph 94% 0.00 in 2 W/m2
07:20 32.9 °F 31.4 °F 30.26 in NE 2 mph 3 mph 94% 0.00 in 3 W/m2
07:30 32.9 °F 31.4 °F 30.26 in East 1 mph 3 mph 94% 0.00 in 5 W/m2
07:40 33.1 °F 31.5 °F 30.26 in South 2 mph 3 mph 94% 0.00 in 6 W/m2
07:50 33.1 °F 31.3 °F 30.26 in East 1 mph 6 mph 93% 0.00 in 7 W/m2
08:00 33.3 °F 31.5 °F 30.27 in East 2 mph 6 mph 93% 0.00 in 8 W/m2
08:10 33.3 °F 31.5 °F 30.27 in Calm   3 mph 93% 0.00 in 10 W/m2
08:20 33.4 °F 31.9 °F 30.27 in ESE 2 mph 6 mph 94% 0.00 in 11 W/m2
08:30 33.4 °F 31.6 °F 30.28 in ESE 3 mph 6 mph 93% 0.00 in 13 W/m2
08:40 33.6 °F 31.8 °F 30.28 in SE 1 mph 5 mph 93% 0.00 in 15 W/m2
08:50 33.6 °F 31.8 °F 30.28 in WNW 1 mph 2 mph 93% 0.00 in 18 W/m2
09:00 33.6 °F 31.8 °F 30.28 in Calm   4 mph 93% 0.00 in 21 W/m2
09:10 33.8 °F 32 °F 30.28 in SSE 1 mph 6 mph 93% 0.00 in 23 W/m2
09:20 33.8 °F 32 °F 30.28 in WSW 2 mph 5 mph 93% 0.00 in 31 W/m2
09:30 33.8 °F 32 °F 30.28 in Calm   4 mph 93% 0.00 in 36 W/m2
09:40 34 °F 32.2 °F 30.28 in Calm   2 mph 93% 0.00 in 36 W/m2
09:50 34 °F 32.2 °F 30.28 in Calm   2 mph 93% 0.00 in 41 W/m2
10:00 34.2 °F 32.3 °F 30.28 in Calm   3 mph 93% 0.00 in 43 W/m2
10:10 34.2 °F 32.3 °F 30.28 in East 2 mph 5 mph 93% 0.00 in 42 W/m2
10:20 34.5 °F 32.7 °F 30.28 in SE 1 mph 6 mph 93% 0.00 in 55 W/m2
10:30 34.5 °F 32.7 °F 30.28 in SSW 1 mph 3 mph 93% 0.00 in 55 W/m2
10:40 34.7 °F 32.9 °F 30.28 in South 1 mph 3 mph 93% 0.00 in 63 W/m2
10:50 34.9 °F 33.1 °F 30.27 in SSW 2 mph 4 mph 93% 0.00 in 73 W/m2
11:00 35.1 °F 32.7 °F 30.27 in SW 1 mph 4 mph 91% 0.00 in 78 W/m2
11:10 35.2 °F 32.9 °F 30.27 in WSW 1 mph 3 mph 91% 0.00 in 78 W/m2
11:20 35.4 °F 32.8 °F 30.27 in Calm   2 mph 90% 0.00 in 83 W/m2
11:30 35.6 °F 33 °F 30.27 in ENE 1 mph 4 mph 90% 0.00 in 86 W/m2
11:40 35.8 °F 33.4 °F 30.27 in East 1 mph 4 mph 91% 0.00 in 86 W/m2
11:50 36 °F 33.6 °F 30.27 in SE 3 mph 6 mph 91% 0.00 in 86 W/m2
12:00 36 °F 33.3 °F 30.27 in ESE 1 mph 7 mph 90% 0.00 in 92 W/m2
12:10 36.1 °F 33.5 °F 30.27 in ESE 1 mph 7 mph 90% 0.00 in 91 W/m2
12:20 36.3 °F 33.7 °F 30.27 in East 2 mph 6 mph 90% 0.00 in 87 W/m2
12:30 36.5 °F 33.8 °F 30.27 in ESE 2 mph 7 mph 90% 0.00 in 89 W/m2
12:40 36.5 °F 33.8 °F 30.27 in ESE 3 mph 7 mph 90% 0.00 in 90 W/m2
12:50 36.7 °F 34 °F 30.27 in SE 3 mph 7 mph 90% 0.00 in 98 W/m2
13:00 36.9 °F 33.9 °F 30.27 in SE 3 mph 7 mph 89% 0.00 in 109 W/m2
13:10 36.9 °F 33.9 °F 30.27 in SE 3 mph 8 mph 89% 0.00 in 118 W/m2
13:20 37 °F 34.1 °F 30.27 in ESE 2 mph 8 mph 89% 0.00 in 119 W/m2
13:30 37.2 °F 34.3 °F 30.26 in SE 5 mph 7 mph 89% 0.00 in 117 W/m2
13:40 37.4 °F 34.5 °F 30.26 in ESE 3 mph 7 mph 89% 0.00 in 104 W/m2
13:50 37.4 °F 34.5 °F 30.26 in SE 3 mph 7 mph 89% 0.00 in 98 W/m2
14:00 37.6 °F 34.6 °F 30.26 in SSW 3 mph 6 mph 89% 0.00 in 96 W/m2
14:10 37.8 °F 34.8 °F 30.26 in SSW 2 mph 6 mph 89% 0.00 in 77 W/m2
14:20 37.4 °F 34.2 °F 30.26 in SW 3 mph 8 mph 88% 0.00 in 117 W/m2
14:30 37.6 °F 34.6 °F 30.26 in SW 5 mph 7 mph 89% 0.00 in 116 W/m2
14:40 37.9 °F 35 °F 30.26 in SW 3 mph 7 mph 89% 0.00 in 97 W/m2
14:50 37.9 °F 34.7 °F 30.26 in SSW 3 mph 7 mph 88% 0.00 in 55 W/m2
15:00 37.8 °F 34.5 °F 30.26 in SSW 2 mph 8 mph 88% 0.00 in 32 W/m2
15:10 37.6 °F 34.3 °F 30.27 in South 2 mph 6 mph 88% 0.00 in 25 W/m2
15:20 37.4 °F 34.5 °F 30.27 in SSW 3 mph 5 mph 89% 0.00 in 16 W/m2
15:30 37.4 °F 34.5 °F 30.27 in SSW 2 mph 5 mph 89% 0.00 in 8 W/m2
15:40 37.2 °F 34.3 °F 30.27 in SW 1 mph 4 mph 89% 0.00 in 3 W/m2
15:50 37 °F 34.1 °F 30.28 in SSW 2 mph 4 mph 89% 0.00 in 2 W/m2
16:00 36.9 °F 34.2 °F 30.28 in SSW 1 mph 4 mph 90% 0.00 in 0 W/m2
16:10 36.7 °F 34 °F 30.28 in SW 1 mph 5 mph 90% 0.00 in 0 W/m2
16:20 36.5 °F 33.8 °F 30.28 in SW 3 mph 6 mph 90% 0.00 in 0 W/m2
16:30 36.3 °F 33.7 °F 30.28 in SW 3 mph 7 mph 90% 0.00 in 0 W/m2
16:40 36 °F 33.3 °F 30.28 in SW 3 mph 7 mph 90% 0.00 in 0 W/m2
16:50 36 °F 33.6 °F 30.29 in SSW 2 mph 6 mph 91% 0.00 in 0 W/m2
17:00 35.8 °F 33.4 °F 30.28 in SW 3 mph 7 mph 91% 0.00 in 0 W/m2
17:10 35.6 °F 33.2 °F 30.29 in SW 3 mph 5 mph 91% 0.00 in 0 W/m2
17:20 35.4 °F 33.1 °F 30.29 in SW 2 mph 5 mph 91% 0.00 in 0 W/m2
17:30 35.4 °F 33.1 °F 30.29 in SW 2 mph 5 mph 91% 0.00 in 0 W/m2
17:40 35.2 °F 32.9 °F 30.29 in SSW 3 mph 6 mph 91% 0.00 in 0 W/m2
17:50 35.2 °F 32.9 °F 30.29 in SW 2 mph 6 mph 91% 0.00 in 0 W/m2
18:00 35.1 °F 32.7 °F 30.29 in SW 3 mph 7 mph 91% 0.00 in 0 W/m2
18:10 35.2 °F 32.9 °F 30.29 in SW 5 mph 8 mph 91% 0.00 in 0 W/m2
18:20 35.1 °F 32.7 °F 30.29 in SW 5 mph 9 mph 91% 0.00 in 0 W/m2
18:30 34.9 °F 33.1 °F 30.29 in SW 5 mph 7 mph 93% 0.00 in 0 W/m2
18:50 34.9 °F 33.1 °F 30.30 in SW 3 mph 8 mph 93% 0.00 in 0 W/m2
19:00 34.7 °F 32.9 °F 30.30 in SW 5 mph 7 mph 93% 0.00 in 0 W/m2
19:10 34.7 °F 32.9 °F 30.30 in SW 5 mph 7 mph 93% 0.00 in 0 W/m2
19:20 34.7 °F 32.9 °F 30.30 in SW 2 mph 7 mph 93% 0.00 in 0 W/m2
19:30 34.7 °F 32.9 °F 30.30 in SSW 2 mph 6 mph 93% 0.00 in 0 W/m2
19:40 34.5 °F 32.7 °F 30.30 in SSW 2 mph 5 mph 93% 0.00 in 0 W/m2
19:50 34.5 °F 32.7 °F 30.30 in SW 2 mph 7 mph 93% 0.00 in 0 W/m2
20:00 34.5 °F 32.7 °F 30.30 in SSW 2 mph 5 mph 93% 0.00 in 0 W/m2
20:10 34.3 °F 32.5 °F 30.30 in SW 2 mph 6 mph 93% 0.00 in 0 W/m2
20:20 34.3 °F 32.5 °F 30.30 in SW 1 mph 5 mph 93% 0.00 in 0 W/m2
20:30 34.2 °F 32.3 °F 30.30 in SSW 2 mph 6 mph 93% 0.00 in 0 W/m2
20:50 34 °F 32.2 °F 30.31 in South 3 mph 8 mph 93% 0.00 in 0 W/m2
21:00 34 °F 32.2 °F 30.31 in South 3 mph 7 mph 93% 0.00 in 0 W/m2
21:10 34 °F 32.2 °F 30.31 in SSW 2 mph 7 mph 93% 0.00 in 0 W/m2
21:20 34 °F 32.2 °F 30.32 in SSW 2 mph 6 mph 93% 0.00 in 0 W/m2
21:30 34 °F 32.2 °F 30.32 in South 3 mph 6 mph 93% 0.00 in 0 W/m2
21:40 34 °F 32.2 °F 30.32 in South 3 mph 7 mph 93% 0.00 in 0 W/m2
21:50 34 °F 31.6 °F 30.32 in South 2 mph 7 mph 91% 0.00 in 0 W/m2
22:00 34 °F 31.6 °F 30.32 in SSW 2 mph 5 mph 91% 0.00 in 0 W/m2
22:10 34 °F 31.6 °F 30.32 in SSE 2 mph 5 mph 91% 0.00 in 0 W/m2
22:20 33.8 °F 31.5 °F 30.32 in South 3 mph 5 mph 91% 0.00 in 0 W/m2
22:30 33.8 °F 31.5 °F 30.32 in South 2 mph 7 mph 91% 0.00 in 0 W/m2
22:40 33.8 °F 31.2 °F 30.32 in South 2 mph 6 mph 90% 0.00 in 0 W/m2
22:50 33.8 °F 31.2 °F 30.32 in South 2 mph 5 mph 90% 0.00 in 0 W/m2
23:00 34 °F 31.3 °F 30.32 in SSE 1 mph 5 mph 90% 0.00 in 0 W/m2
23:10 34 °F 31.4 °F 30.32 in Calm   7 mph 90% 0.00 in 0 W/m2
23:20 34 °F 31.4 °F 30.32 in SSE 1 mph 6 mph 90% 0.00 in 0 W/m2
23:30 34 °F 31.4 °F 30.32 in South 3 mph 7 mph 90% 0.00 in 0 W/m2
23:40 34 °F 31.4 °F 30.32 in SSW 2 mph 5 mph 90% 0.00 in 0 W/m2
23:50 34 °F 31.6 °F 30.32 in SW 1 mph 5 mph 91% 0.00 in 0 W/m2
Knjazevac, Serbia
Compliments of Weather Underground - 2 mb